Time;durP1;ratioP1;P1;durP2;ratioP2;P2;SDS_P1;SDS_P2;PMS_P1;PMS_P2;Temp;Humidity;BMP_temperature;BMP_pressure;BME280_temperature;BME280_humidity;BME280_pressure;Samples;Min_cycle;Max_cycle;Signal;HPM_P1;HPM_P2
2023/07/12 01:23:54;;;;;;;12.27;8.03;;;17.30;99.90;;;;;;5455419;24;20276;-81
2023/07/12 01:27:02;;;;;;;13.90;8.30;;;17.20;99.90;;;;;;4769053;30;20232;-80
2023/07/12 01:30:08;;;;;;;15.73;8.70;;;17.10;99.90;;;;;;4787596;30;20189;-80
2023/07/12 01:33:30;;;;;;;13.37;8.60;;;17.10;99.90;;;;;;4725918;30;20218;-82
2023/07/12 01:39:25;;;;;;;11.27;8.77;;;17.00;99.90;;;;;;4748415;29;20241;-82
2023/07/12 01:42:28;;;;;;;14.43;8.90;;;17.00;99.90;;;;;;4670945;30;20254;-82
2023/07/12 01:45:45;;;;;;;12.60;8.80;;;17.00;99.90;;;;;;4661559;30;20255;-82
2023/07/12 01:49:44;;;;;;;14.47;9.03;;;16.90;99.90;;;;;;4573786;31;20224;-81
2023/07/12 01:52:50;;;;;;;13.63;9.23;;;16.90;99.90;;;;;;4798453;24;20249;-82
2023/07/12 01:56:17;;;;;;;14.57;9.40;;;16.90;99.90;;;;;;4759525;30;20208;-82
2023/07/12 01:59:32;;;;;;;13.73;9.43;;;16.90;99.90;;;;;;4712257;30;20328;-81
2023/07/12 02:02:40;;;;;;;16.60;9.77;;;16.80;99.90;;;;;;4752803;29;20412;-80
2023/07/12 02:20:33;;;;;;;12.97;9.47;;;16.60;99.90;;;;;;4726244;30;20894;-80
2023/07/12 02:23:10;;;;;;;14.43;9.97;;;16.60;99.90;;;;;;4747682;24;20728;-80
2023/07/12 02:29:39;;;;;;;15.63;9.80;;;16.60;99.90;;;;;;4846786;24;20281;-80
2023/07/12 03:11:56;;;;;;;15.80;10.17;;;16.50;99.90;;;;;;5058401;24;20245;-79
2023/07/12 03:18:56;;;;;;;;;;;;;;;;;;;;;
2023/07/12 03:28:31;;;;;;;;;;;;;;;;;;;;;
2023/07/12 03:32:00;;;;;;;;;;;;;;;;;;;;;
2023/07/12 03:44:40;;;;;;;15.43;11.10;;;16.70;99.90;;;;;;4784082;24;20652;-81
2023/07/12 03:54:26;;;;;;;;;;;;;;;;;;;;;
2023/07/12 04:24:55;;;;;;;;;;;;;;;;;;;;;
2023/07/12 04:27:37;;;;;;;14.43;10.57;;;17.60;99.90;;;;;;3268363;24;20715;-79
2023/07/12 07:32:23;;;;;;;10.65;7.07;;;24.80;99.90;;;;;;4425252;24;20321;-81
2023/07/12 09:10:08;;;;;;;5.45;4.40;;;30.00;91.30;;;;;;4979294;24;20320;-81
2023/07/12 09:13:36;;;;;;;6.03;4.40;;;30.30;90.40;;;;;;4751561;30;20249;-84
2023/07/12 09:16:40;;;;;;;6.75;4.32;;;30.90;90.00;;;;;;4823490;24;20255;-81
2023/07/12 09:23:08;;;;;;;6.28;4.15;;;32.10;84.60;;;;;;4762717;30;20233;-81
2023/07/12 09:26:11;;;;;;;7.28;4.43;;;32.50;82.20;;;;;;4831106;24;20259;-82
2023/07/12 09:41:36;;;;;;;6.07;4.10;;;33.10;75.50;;;;;;4574849;24;20339;-82
2023/07/12 09:56:04;;;;;;;6.75;4.00;;;34.20;69.40;;;;;;5113807;24;20240;-83
2023/07/12 10:05:05;;;;;;;4.78;3.97;;;33.70;67.10;;;;;;4762999;29;20315;-86
2023/07/12 10:58:48;;;;;;;5.18;4.00;;;35.40;57.20;;;;;;4731683;30;20233;-76
2023/07/12 11:01:47;;;;;;;8.63;4.10;;;35.70;56.70;;;;;;4709577;30;20242;-76
2023/07/12 11:04:23;;;;;;;5.43;4.13;;;35.80;56.10;;;;;;4714860;30;20241;-78
2023/07/12 11:07:15;;;;;;;5.78;3.80;;;35.20;55.70;;;;;;4699847;30;20611;-76
2023/07/12 11:09:42;;;;;;;5.03;3.72;;;35.50;56.60;;;;;;4714457;30;20203;-74
2023/07/12 11:12:33;;;;;;;4.75;3.95;;;36.40;56.00;;;;;;4714823;30;20354;-84
2023/07/12 11:16:02;;;;;;;4.60;3.53;;;36.80;54.00;;;;;;4803229;24;20750;-81
2023/07/12 11:19:09;;;;;;;5.10;4.10;;;37.40;54.90;;;;;;4736936;30;20693;-83
2023/07/12 11:22:26;;;;;;;5.63;3.80;;;37.70;52.60;;;;;;4736980;30;20224;-82
2023/07/12 11:25:48;;;;;;;8.07;4.40;;;37.80;53.20;;;;;;4741239;30;20292;-82
2023/07/12 11:28:28;;;;;;;8.80;4.90;;;38.00;53.00;;;;;;4752086;30;20227;-81
2023/07/12 11:31:23;;;;;;;5.60;4.68;;;37.30;53.30;;;;;;4752625;30;20229;-81
2023/07/12 11:37:40;;;;;;;6.70;5.10;;;35.50;56.80;;;;;;4815242;24;20273;-83
2023/07/12 11:40:38;;;;;;;5.90;4.50;;;35.80;55.90;;;;;;4702077;30;20296;-82
2023/07/12 11:43:32;;;;;;;7.00;4.82;;;34.30;56.90;;;;;;4717490;30;20261;-84
2023/07/12 11:46:16;;;;;;;7.00;4.88;;;35.00;57.50;;;;;;4702689;30;20238;-83
2023/07/12 11:48:58;;;;;;;6.72;5.00;;;34.70;57.00;;;;;;4807703;24;20252;-84
2023/07/12 11:52:01;;;;;;;9.23;5.47;;;34.60;57.00;;;;;;4782871;30;20323;-85
2023/07/12 11:54:41;;;;;;;6.50;5.20;;;34.10;58.50;;;;;;4774890;24;20249;-80
2023/07/12 11:57:57;;;;;;;6.65;5.32;;;33.80;59.10;;;;;;4771563;30;20260;-85
2023/07/12 12:01:35;;;;;;;5.85;5.00;;;33.50;59.60;;;;;;4788198;30;20256;-89
2023/07/12 12:27:42;;;;;;;7.35;5.28;;;32.90;63.10;;;;;;4695180;30;20267;-80
2023/07/12 12:31:09;;;;;;;;;;;;;;;;;;;;;
2023/07/12 12:34:47;;;;;;;7.00;5.72;;;32.20;63.30;;;;;;4712591;30;20205;-80
2023/07/12 12:42:15;;;;;;;8.00;5.68;;;31.50;65.00;;;;;;4668226;30;20691;-80
2023/07/12 12:44:54;;;;;;;7.47;5.80;;;31.20;65.80;;;;;;4662790;30;20653;-81
2023/07/12 12:48:05;;;;;;;9.07;5.88;;;31.10;67.00;;;;;;4653739;30;20219;-80
2023/07/12 12:51:40;;;;;;;6.75;5.55;;;31.30;66.80;;;;;;4640100;30;20297;-81
2023/07/12 12:54:52;;;;;;;6.63;5.38;;;31.70;66.60;;;;;;4651403;30;20627;-81
2023/07/12 16:01:52;;;;;;;17.00;10.77;;;26.70;99.90;;;;;;4790596;24;20271;-83
2023/07/12 16:11:45;;;;;;;11.63;9.32;;;26.30;99.90;;;;;;4713708;30;20300;-83
2023/07/12 16:14:52;;;;;;;12.00;8.60;;;26.40;99.90;;;;;;4844594;24;20251;-82
2023/07/12 16:18:05;;;;;;;;;;;;;;;;;;;;;
2023/07/12 17:32:35;;;;;;;12.00;9.10;;;25.80;99.90;;;;;;4354035;24;20251;-83
2023/07/12 17:41:51;;;;;;;13.30;8.88;;;25.70;99.90;;;;;;4925351;24;20243;-80
2023/07/12 17:45:06;;;;;;;12.23;8.65;;;25.60;99.90;;;;;;4776108;29;20204;-78
2023/07/12 17:47:59;;;;;;;19.23;9.48;;;25.60;99.90;;;;;;4777584;29;20195;-79
2023/07/12 17:50:26;;;;;;;14.63;9.40;;;25.40;99.90;;;;;;4805108;29;20206;-78
2023/07/12 17:52:53;;;;;;;12.73;9.23;;;25.30;99.90;;;;;;4789013;29;20204;-80
2023/07/12 17:55:21;;;;;;;15.52;9.45;;;25.20;99.90;;;;;;4788776;29;20665;-79
2023/07/12 17:57:49;;;;;;;14.70;9.57;;;25.30;99.90;;;;;;4774521;29;20229;-79
2023/07/12 18:00:16;;;;;;;14.13;9.00;;;25.20;99.90;;;;;;4788528;29;20678;-79
2023/07/12 18:02:53;;;;;;;15.05;9.45;;;25.10;99.90;;;;;;4774198;29;20215;-79
2023/07/12 18:05:26;;;;;;;18.20;10.18;;;25.10;99.90;;;;;;4788672;29;20343;-80
2023/07/12 18:07:55;;;;;;;16.67;10.13;;;25.10;99.90;;;;;;4801895;29;20199;-79
2023/07/12 18:10:22;;;;;;;14.57;9.50;;;25.00;99.90;;;;;;4788534;29;20306;-79
2023/07/12 18:13:00;;;;;;;14.40;9.40;;;25.00;99.90;;;;;;4817529;24;20255;-78
2023/07/12 18:16:00;;;;;;;14.30;9.63;;;25.10;99.90;;;;;;4789621;29;20773;-80
2023/07/12 18:18:28;;;;;;;11.55;9.35;;;25.00;99.90;;;;;;4788453;29;20235;-81
2023/07/12 18:23:56;;;;;;;16.75;9.77;;;25.00;99.90;;;;;;4729938;30;20213;-81
2023/07/12 18:27:37;;;;;;;14.43;9.75;;;24.90;99.90;;;;;;4804699;24;20252;-79
2023/07/12 18:33:25;;;;;;;13.48;10.00;;;24.80;99.90;;;;;;4806494;24;20262;-77
2023/07/12 18:36:20;;;;;;;14.10;10.52;;;24.80;99.90;;;;;;4767063;29;20231;-77
2023/07/12 18:39:14;;;;;;;16.00;10.43;;;24.80;99.90;;;;;;4799399;29;20581;-77
2023/07/12 18:41:53;;;;;;;14.05;10.02;;;24.80;99.90;;;;;;4748389;30;20255;-76
2023/07/12 18:47:55;;;;;;;13.57;10.15;;;24.70;99.90;;;;;;4882045;24;20247;-78
2023/07/12 18:52:24;;;;;;;;;;;;;;;;;;;;;
2023/07/12 18:58:27;;;;;;;;;;;;;;;;;;;;;
2023/07/12 19:01:18;;;;;;;14.38;10.75;;;24.60;99.90;;;;;;4782138;29;20235;-79
2023/07/12 19:03:48;;;;;;;23.23;12.35;;;24.50;99.90;;;;;;4807851;29;20195;-79
2023/07/12 19:06:21;;;;;;;16.00;11.05;;;24.30;99.90;;;;;;4791604;29;20231;-79
2023/07/12 19:09:30;;;;;;;16.05;11.30;;;24.10;99.90;;;;;;4791706;29;20208;-80
2023/07/12 19:12:41;;;;;;;19.05;11.35;;;24.10;99.90;;;;;;4733618;30;20367;-77
2023/07/12 19:15:55;;;;;;;15.07;10.70;;;23.80;99.90;;;;;;4751119;30;20213;-78
2023/07/12 19:18:43;;;;;;;16.90;11.27;;;23.80;99.90;;;;;;4742965;24;20244;-80
2023/07/12 19:21:30;;;;;;;18.90;12.02;;;23.70;99.90;;;;;;4768985;30;20264;-80
2023/07/12 19:24:09;;;;;;;16.50;11.90;;;23.70;99.90;;;;;;4798373;24;20260;-80
2023/07/12 19:26:48;;;;;;;16.08;11.25;;;23.60;99.90;;;;;;4832458;24;20724;-78
2023/07/12 19:29:54;;;;;;;16.95;11.27;;;23.50;99.90;;;;;;4790609;29;20218;-76
2023/07/12 19:32:46;;;;;;;19.97;12.60;;;23.50;99.90;;;;;;4795778;24;20256;-79
2023/07/12 19:35:33;;;;;;;22.42;12.93;;;23.30;99.90;;;;;;4715798;30;20226;-80
2023/07/12 19:41:17;;;;;;;18.15;12.70;;;23.10;99.90;;;;;;4772887;30;20247;-79
2023/07/12 19:43:52;;;;;;;19.63;13.30;;;23.00;99.90;;;;;;4773740;30;20207;-79
2023/07/12 19:46:33;;;;;;;16.45;12.23;;;23.00;99.90;;;;;;4771481;30;20285;-81
2023/07/12 19:49:05;;;;;;;18.07;12.57;;;22.90;99.90;;;;;;4782401;30;20240;-80
2023/07/12 19:51:49;;;;;;;22.38;12.98;;;22.80;99.90;;;;;;4749546;30;20344;-80
2023/07/12 20:01:32;;;;;;;18.37;13.17;;;22.70;99.90;;;;;;4725834;30;20238;-80
2023/07/12 20:04:40;;;;;;;17.87;12.17;;;22.50;99.90;;;;;;4763321;24;20241;-79
2023/07/12 20:07:26;;;;;;;20.47;13.57;;;22.40;99.90;;;;;;4727225;30;20248;-80
2023/07/12 20:13:45;;;;;;;19.80;13.13;;;22.30;99.90;;;;;;4751452;30;20623;-81
2023/07/12 20:17:04;;;;;;;20.83;13.77;;;22.20;99.90;;;;;;4763855;30;20206;-80
2023/07/12 20:19:57;;;;;;;19.53;13.90;;;22.20;99.90;;;;;;4752209;30;20567;-81
2023/07/12 20:22:45;;;;;;;23.43;14.63;;;22.00;99.90;;;;;;4751556;30;20240;-80
2023/07/12 20:25:15;;;;;;;23.07;14.27;;;21.90;99.90;;;;;;4752198;30;20209;-81
2023/07/12 20:27:42;;;;;;;21.97;14.27;;;22.00;99.90;;;;;;4752409;30;20603;-81
2023/07/12 20:30:13;;;;;;;19.27;13.57;;;21.80;99.90;;;;;;4750661;30;20308;-80
2023/07/12 20:32:40;;;;;;;20.30;13.43;;;21.70;99.90;;;;;;4753214;30;20260;-79
2023/07/12 20:35:13;;;;;;;22.40;14.07;;;21.80;99.90;;;;;;4746330;30;20248;-79
2023/07/12 20:38:05;;;;;;;20.80;13.93;;;21.70;99.90;;;;;;4739701;30;20293;-79
2023/07/12 20:44:29;;;;;;;23.00;15.20;;;21.80;99.90;;;;;;4818989;24;20263;-77
2023/07/12 20:47:21;;;;;;;19.93;14.57;;;21.60;99.90;;;;;;4804216;29;20212;-78
2023/07/12 20:49:54;;;;;;;19.63;13.67;;;21.50;99.90;;;;;;4790134;29;20265;-78
2023/07/12 20:52:45;;;;;;;18.87;13.83;;;21.40;99.90;;;;;;4793456;29;20175;-78
2023/07/12 21:43:25;;;;;;;21.50;14.53;;;20.80;99.90;;;;;;4042770;24;20247;-85
